Glennallen, AK

10:50 PM AKDT on July 30, 2014 (GMT -0800)
Snowshoe Lake (PALK) Elev 2411 ft | 62.03 °N, 146.67 °W | Change Station

Current weather conditions updated 404 days ago

Partly Cloudy
Partly Cloudy
59 °F
Feels Like 59 °F
N
6
Wind Variable Wind from ESE
Gusts 6 mph

Today
High -- | Low -- °F
--% Chance of Precip.
Yesterday
High -- | Low -- °F
Precip. -- in
5:06 AM 10:35 PM
Waxing Crescent, 16% visible
Pressure 29.98 in
Visibility 30.0 miles
Clouds Mostly Cloudy 7000 ft
Overcast 12000 ft
Dew Point 41 °F
Humidity 52%
Rainfall 0.00 in
Snow Depth Not available.
UV 0 out of 12
Pollen Not available.
Air Quality Not available.
Flu Activity Not available.
METAR PALK 211451Z 00000KT 30SM BKN070 OVC120 08/07 A2998 RMK FIRST ESTIMATE PASS OPEN NOSPECI

More Conditions Fewer Conditions

Pressure 29.98 in
Visibility 30.0 miles
Clouds Mostly Cloudy 7000 ft
Overcast 12000 ft
Dew Point 41 °F
Humidity 52%
Rainfall 0.00 in
Snow Depth Not available.
UV 0 out of 12
Pollen Not available.
Air Quality Not available.
Flu Activity Not available.
METAR PALK 211451Z 00000KT 30SM BKN070 OVC120 08/07 A2998 RMK FIRST ESTIMATE PASS OPEN NOSPECI

More Conditions Fewer Conditions

10-Day Weather Forecast

Almanac

Astronomy

Jul. 30, 2014 Rise Set
Actual Time 5:06 AM AKDT 10:35 PM AKDT
Civil Twilight 3:52 AM AKDT 11:47 PM AKDT
Nautical Twilight 2:24 AM AKDT 1:19 AM AKDT
Astronomical Twilight Sun does not rise Sun does not rise
Moon 10:14 AM AKDT (7/30) 10:47 PM AKDT (7/30)
Length of Visible Light 19h 54m
Length of Day
17h 29m
Tomorrow will be 5m 30s shorter.
Waxing Crescent, 16% of the Moon is Illuminated
Jul 31
Waxing Crescent
Aug 3
First Quarter
Aug 10
Full
Aug 17
Last Quarter
Aug 25
New

Community

WunderPhotos

Upload Photos

1,739,251 photos uploaded!

Nearby

Snow Depth

Station Depth Elevation
Upper Tsaina River 0 in 1750 ft
Susitna Valley High 1 in 375 ft
Indian Pass 2 in 2300 ft
Turnagain Pass 0 in 1880 ft
Point Mackenzie 1 in 200 ft

Earthquake Activity

City Distance Mag. Time & Date
No recent earthquake activity has been reported nearby.
Minimum magnitude displayed is 2.5.

Coastal Water Temperatures

Place Temperature
No Stations Reporting

Nearby Weather Stations

Station Location Temp. Dew Point Humidity Wind Precip. Elev Updated Type
AKDOT Glenn Highway @ MP 176.6, Glennallen, AK 67 °F 38 °F 34% West  at  3 mph 0.00 in / hr 2112 ft 9:15 PM AKDT MADIS

Show More Stations Show Fewer Stations